Time;durP1;ratioP1;P1;durP2;ratioP2;P2;SDS_P1;SDS_P2;PMS_P1;PMS_P2;Temp;Humidity;BMP_temperature;BMP_pressure;BME280_temperature;BME280_humidity;BME280_pressure;Samples;Min_cycle;Max_cycle;Signal;HPM_P1;HPM_P2
2022/01/03 00:00:17;;;;;;;8.10;2.63;;;22.80;63.70;;;;;;4969968;28;20490;-80
2022/01/03 00:02:45;;;;;;;6.88;2.20;;;22.70;63.80;;;;;;4973110;28;20027;-79
2022/01/03 00:05:12;;;;;;;8.02;2.47;;;22.70;63.80;;;;;;4966628;28;20038;-79
2022/01/03 00:07:41;;;;;;;9.65;2.55;;;22.70;64.00;;;;;;4950481;28;20027;-79
2022/01/03 00:10:10;;;;;;;10.50;2.97;;;22.70;64.10;;;;;;4971770;28;20094;-79
2022/01/03 00:12:38;;;;;;;7.72;2.42;;;22.70;64.20;;;;;;4968508;28;20034;-77
2022/01/03 00:15:08;;;;;;;5.97;2.30;;;22.70;64.30;;;;;;4969812;28;20070;-80
2022/01/03 00:17:35;;;;;;;8.85;2.60;;;22.70;64.40;;;;;;4971019;28;20027;-78
2022/01/03 00:20:03;;;;;;;14.07;3.95;;;22.70;64.50;;;;;;4972590;28;20113;-79
2022/01/03 00:22:44;;;;;;;14.43;2.65;;;22.70;64.60;;;;;;4973559;28;20068;-79
2022/01/03 00:25:29;;;;;;;9.90;2.17;;;22.60;64.70;;;;;;4970734;28;20037;-77
2022/01/03 00:28:15;;;;;;;8.48;2.67;;;22.60;64.70;;;;;;4972848;28;20038;-74
2022/01/03 00:30:42;;;;;;;;;;;22.60;64.80;;;;;;4971633;28;20042;-77
2022/01/03 00:33:09;;;;;;;11.65;2.47;;;22.60;64.80;;;;;;4975529;28;20322;-78
2022/01/03 00:35:40;;;;;;;9.30;2.75;;;22.60;64.80;;;;;;4973627;28;20030;-78
2022/01/03 00:38:12;;;;;;;9.93;3.22;;;22.60;64.90;;;;;;4970836;28;20030;-77
2022/01/03 00:40:40;;;;;;;10.45;2.97;;;22.60;64.90;;;;;;4969609;28;20457;-76
2022/01/03 00:43:07;;;;;;;6.85;3.03;;;22.60;65.00;;;;;;4973317;28;20031;-78
2022/01/03 00:45:34;;;;;;;8.77;2.40;;;22.50;65.00;;;;;;4954820;28;20441;-77
2022/01/03 00:48:00;;;;;;;6.35;2.22;;;22.50;65.00;;;;;;4969848;28;20041;-76
2022/01/03 00:50:29;;;;;;;9.25;2.65;;;22.50;65.00;;;;;;4968941;28;20030;-78
2022/01/03 00:52:56;;;;;;;8.40;3.28;;;22.50;65.00;;;;;;4971400;28;20117;-78
2022/01/03 00:55:22;;;;;;;10.60;2.65;;;22.50;65.00;;;;;;4973886;28;20022;-77
2022/01/03 00:58:09;;;;;;;9.52;3.05;;;22.50;65.10;;;;;;4968118;28;20505;-77
2022/01/03 01:00:42;;;;;;;11.60;3.00;;;22.50;65.20;;;;;;4972796;28;20105;-78
2022/01/03 01:03:20;;;;;;;9.07;2.92;;;22.50;65.20;;;;;;4972848;28;20019;-77
2022/01/03 01:05:49;;;;;;;10.80;3.20;;;22.50;65.30;;;;;;4953920;28;20561;-77
2022/01/03 01:08:22;;;;;;;9.00;3.05;;;22.50;65.40;;;;;;4968936;28;20439;-76
2022/01/03 01:10:51;;;;;;;11.48;3.50;;;22.40;65.40;;;;;;4973901;28;20030;-77
2022/01/03 01:13:19;;;;;;;13.32;3.28;;;22.50;65.50;;;;;;4972249;28;20403;-77
2022/01/03 01:15:45;;;;;;;9.57;3.47;;;22.40;65.50;;;;;;4973649;28;20505;-77
2022/01/03 01:18:12;;;;;;;19.70;2.97;;;22.40;65.60;;;;;;4972238;28;20545;-78
2022/01/03 01:20:40;;;;;;;12.18;2.97;;;22.40;65.70;;;;;;4972715;28;20027;-77
2022/01/03 01:23:09;;;;;;;12.60;2.90;;;22.40;65.60;;;;;;4978721;28;20035;-78
2022/01/03 01:28:06;;;;;;;8.35;2.88;;;22.40;65.80;;;;;;4974668;28;20037;-77
2022/01/03 01:30:34;;;;;;;11.73;2.97;;;22.40;65.90;;;;;;4964389;28;20041;-77
2022/01/03 01:33:03;;;;;;;12.85;2.90;;;22.30;65.80;;;;;;4975270;28;20078;-77
2022/01/03 01:35:48;;;;;;;9.52;3.15;;;22.40;65.90;;;;;;4970104;28;20037;-80
2022/01/03 01:38:23;;;;;;;11.45;2.90;;;22.40;65.90;;;;;;4975512;28;20018;-77
2022/01/03 01:40:53;;;;;;;13.32;3.83;;;22.30;65.90;;;;;;4969180;28;20027;-78
2022/01/03 01:43:29;;;;;;;11.32;3.60;;;22.30;66.00;;;;;;4954795;28;20585;-78
2022/01/03 01:45:58;;;;;;;11.95;3.05;;;22.30;66.10;;;;;;4971339;28;20125;-77
2022/01/03 01:48:26;;;;;;;8.45;2.60;;;22.20;66.10;;;;;;4964194;28;20031;-78
2022/01/03 01:50:55;;;;;;;9.73;3.75;;;22.30;66.10;;;;;;4973876;28;20031;-77
2022/01/03 01:53:26;;;;;;;13.88;3.45;;;22.30;66.20;;;;;;4970529;28;20026;-78
2022/01/03 01:55:56;;;;;;;31.67;3.83;;;22.20;66.10;;;;;;4971181;28;20031;-77
2022/01/03 01:58:59;;;;;;;11.05;2.88;;;22.20;66.20;;;;;;4972291;28;20042;-76
2022/01/03 02:01:55;;;;;;;9.68;3.08;;;22.20;67.00;;;;;;4969099;28;20082;-75
2022/01/03 02:05:00;;;;;;;9.20;3.78;;;22.20;66.30;;;;;;4970850;28;20023;-76
2022/01/03 02:07:34;;;;;;;17.10;4.78;;;22.20;66.40;;;;;;4963490;28;20047;-78
2022/01/03 02:10:07;;;;;;;13.73;3.50;;;22.20;66.50;;;;;;4972370;28;20042;-78
2022/01/03 02:12:42;;;;;;;32.30;6.95;;;22.20;66.50;;;;;;4963077;28;20113;-77
2022/01/03 02:15:14;;;;;;;38.10;5.55;;;22.20;66.90;;;;;;4964713;28;20514;-78
2022/01/03 02:17:44;;;;;;;22.55;3.40;;;22.20;67.50;;;;;;4951884;28;20023;-73
2022/01/03 02:20:23;;;;;;;18.10;2.95;;;22.20;67.70;;;;;;4970495;28;20386;-75
2022/01/03 02:22:51;;;;;;;15.95;3.78;;;22.10;67.60;;;;;;4967681;28;20054;-76
2022/01/03 02:25:20;;;;;;;16.63;4.30;;;22.20;67.60;;;;;;4948688;28;20119;-75
2022/01/03 02:27:50;;;;;;;10.70;2.92;;;22.10;67.40;;;;;;4971892;28;20031;-75
2022/01/03 02:30:19;;;;;;;13.10;3.85;;;22.10;67.40;;;;;;4967695;28;20022;-76
2022/01/03 02:32:46;;;;;;;10.82;2.80;;;22.10;67.30;;;;;;4970721;28;20029;-75
2022/01/03 02:35:13;;;;;;;11.43;3.42;;;22.10;67.40;;;;;;4967503;28;20030;-76
2022/01/03 02:37:40;;;;;;;8.07;3.08;;;22.10;67.50;;;;;;4970613;28;20097;-75
2022/01/03 02:40:10;;;;;;;9.15;3.50;;;22.10;67.50;;;;;;4965406;28;20490;-75
2022/01/03 02:42:40;;;;;;;10.15;3.85;;;22.10;67.50;;;;;;4968770;28;20081;-75
2022/01/03 02:45:14;;;;;;;16.80;3.85;;;22.10;67.60;;;;;;4972463;28;20077;-75
2022/01/03 02:47:45;;;;;;;12.88;3.33;;;22.00;67.60;;;;;;4971373;28;20022;-74
2022/01/03 02:50:14;;;;;;;11.43;3.50;;;22.00;67.70;;;;;;4972212;28;20027;-77
2022/01/03 02:52:41;;;;;;;14.02;3.47;;;22.00;67.70;;;;;;4968026;28;20015;-76
2022/01/03 02:55:09;;;;;;;13.10;2.75;;;22.00;67.70;;;;;;4972779;28;20530;-77
2022/01/03 02:57:38;;;;;;;15.18;3.58;;;22.00;67.90;;;;;;4966395;28;20046;-74
2022/01/03 03:00:10;;;;;;;11.63;2.50;;;22.00;67.90;;;;;;4972834;28;20027;-76
2022/01/03 03:02:37;;;;;;;9.93;2.63;;;22.00;67.90;;;;;;4953651;28;20085;-76
2022/01/03 03:05:07;;;;;;;9.05;3.40;;;22.00;68.40;;;;;;4972248;28;20417;-75
2022/01/03 03:07:34;;;;;;;30.75;5.35;;;22.00;68.00;;;;;;4970304;28;20197;-77
2022/01/03 03:10:03;;;;;;;15.95;3.50;;;22.00;68.10;;;;;;4970664;28;20050;-76
2022/01/03 03:12:31;;;;;;;13.38;3.25;;;22.00;68.10;;;;;;4964391;28;20501;-76
2022/01/03 03:14:57;;;;;;;8.15;2.88;;;21.90;67.90;;;;;;4971139;28;20482;-77
2022/01/03 03:17:24;;;;;;;15.75;3.53;;;21.90;67.80;;;;;;4969155;28;20030;-74
2022/01/03 03:20:03;;;;;;;14.82;3.10;;;21.90;67.80;;;;;;4969063;28;20031;-78
2022/01/03 03:22:31;;;;;;;12.77;3.40;;;21.90;67.80;;;;;;4965562;28;20082;-77
2022/01/03 03:25:10;;;;;;;9.95;2.75;;;21.90;67.80;;;;;;4966482;28;20035;-77
2022/01/03 03:27:43;;;;;;;6.13;2.42;;;21.90;67.70;;;;;;4970244;28;20039;-76
2022/01/03 03:30:16;;;;;;;24.15;3.28;;;21.90;67.70;;;;;;4968087;28;20030;-77
2022/01/03 03:32:44;;;;;;;84.45;7.65;;;21.80;67.80;;;;;;4970751;28;20154;-78
2022/01/03 03:35:11;;;;;;;48.65;6.00;;;21.80;68.00;;;;;;4966988;28;20485;-79
2022/01/03 03:37:38;;;;;;;23.65;4.70;;;21.80;68.10;;;;;;4971824;28;20027;-77
2022/01/03 03:40:05;;;;;;;41.65;5.35;;;21.80;68.10;;;;;;4971069;28;20066;-77
2022/01/03 03:42:32;;;;;;;26.58;4.40;;;21.80;68.20;;;;;;4950965;28;20447;-77
2022/01/03 03:44:58;;;;;;;22.35;3.75;;;21.80;68.30;;;;;;4969862;28;20121;-76
2022/01/03 03:47:25;;;;;;;40.35;4.55;;;21.70;68.30;;;;;;4973621;28;20025;-77
2022/01/03 03:49:53;;;;;;;23.45;3.53;;;21.70;68.30;;;;;;4971812;28;20027;-77
2022/01/03 03:52:19;;;;;;;15.32;2.90;;;21.70;68.40;;;;;;4968187;28;20394;-78
2022/01/03 03:54:46;;;;;;;10.38;2.97;;;21.70;68.40;;;;;;4974183;28;20023;-78
2022/01/03 03:57:12;;;;;;;197.05;155.77;;;21.70;68.90;;;;;;4967803;28;20019;-77
2022/01/03 03:59:39;;;;;;;60.20;43.40;;;21.60;69.80;;;;;;4975207;28;20031;-79
2022/01/03 04:02:07;;;;;;;26.60;15.68;;;21.50;70.20;;;;;;4966335;28;20034;-77
2022/01/03 04:04:34;;;;;;;12.82;4.38;;;21.30;70.80;;;;;;4969597;28;20030;-75
2022/01/03 04:07:01;;;;;;;7.28;2.35;;;21.20;70.90;;;;;;4967360;28;20043;-81
2022/01/03 04:09:28;;;;;;;12.77;2.70;;;21.10;71.40;;;;;;4976052;28;20098;-80
2022/01/03 04:11:54;;;;;;;9.30;2.03;;;21.00;71.70;;;;;;4975956;28;20034;-79
2022/01/03 04:14:21;;;;;;;7.40;2.50;;;20.90;72.20;;;;;;4972941;28;20378;-74
2022/01/03 04:16:47;;;;;;;41.47;15.20;;;20.80;72.50;;;;;;4972911;28;20054;-78
2022/01/03 04:19:14;;;;;;;61.35;36.45;;;20.80;72.90;;;;;;4976177;28;20016;-79
2022/01/03 04:21:41;;;;;;;17.58;8.73;;;20.80;73.20;;;;;;4971948;28;20050;-75
2022/01/03 04:24:10;;;;;;;6.25;2.83;;;20.80;72.90;;;;;;4972648;28;20030;-78
2022/01/03 04:26:37;;;;;;;7.35;2.65;;;20.80;72.90;;;;;;4974486;28;20031;-79
2022/01/03 04:29:05;;;;;;;13.57;3.38;;;20.80;73.10;;;;;;4974193;28;20015;-80
2022/01/03 04:31:32;;;;;;;10.23;2.33;;;20.80;73.00;;;;;;4975063;28;20493;-78
2022/01/03 04:33:59;;;;;;;12.85;2.25;;;20.80;73.30;;;;;;4974206;28;20031;-81
2022/01/03 04:36:27;;;;;;;22.02;7.53;;;20.80;73.30;;;;;;4954784;28;20349;-80
2022/01/03 04:38:54;;;;;;;21.83;12.40;;;20.80;73.10;;;;;;4972126;28;20027;-78
2022/01/03 04:41:20;;;;;;;16.17;11.48;;;20.70;73.00;;;;;;4972494;28;20033;-79
2022/01/03 04:43:47;;;;;;;9.43;3.20;;;20.80;72.90;;;;;;4973203;28;20054;-77
2022/01/03 04:46:13;;;;;;;12.80;2.95;;;20.80;72.80;;;;;;4969804;28;20046;-77
2022/01/03 04:48:41;;;;;;;20.02;3.25;;;20.80;72.90;;;;;;4972645;28;20034;-76
2022/01/03 04:51:09;;;;;;;13.23;2.47;;;20.80;73.00;;;;;;4970394;28;20018;-74
2022/01/03 04:53:39;;;;;;;31.33;4.32;;;20.80;72.80;;;;;;4951531;28;20023;-75
2022/01/03 04:56:08;;;;;;;24.95;5.25;;;20.80;72.90;;;;;;4975801;28;20046;-78
2022/01/03 04:58:36;;;;;;;8.88;3.20;;;20.80;73.00;;;;;;4968298;28;20493;-76
2022/01/03 05:01:03;;;;;;;10.25;2.72;;;20.80;73.00;;;;;;4965568;28;20119;-77
2022/01/03 05:03:29;;;;;;;8.10;3.25;;;20.80;73.20;;;;;;4973878;28;20023;-79
2022/01/03 05:05:57;;;;;;;11.38;3.10;;;20.80;73.20;;;;;;4970332;28;20442;-76
2022/01/03 05:08:24;;;;;;;10.50;3.35;;;20.80;73.10;;;;;;4973971;28;20023;-75
2022/01/03 05:10:51;;;;;;;15.02;3.28;;;20.80;73.20;;;;;;4970005;28;20114;-78
2022/01/03 05:13:19;;;;;;;18.05;3.85;;;20.80;73.10;;;;;;4967171;28;20033;-77
2022/01/03 05:15:45;;;;;;;10.05;2.97;;;20.80;73.10;;;;;;4966232;28;20019;-77
2022/01/03 05:18:12;;;;;;;28.67;4.85;;;20.80;73.30;;;;;;4974117;28;20022;-78
2022/01/03 05:20:38;;;;;;;22.92;5.90;;;20.80;73.60;;;;;;4971686;28;20114;-74
2022/01/03 05:23:05;;;;;;;34.55;7.93;;;20.90;73.50;;;;;;4975056;28;20468;-74
2022/01/03 05:25:31;;;;;;;33.67;6.82;;;21.00;73.40;;;;;;4976655;28;20031;-75
2022/01/03 05:27:58;;;;;;;27.13;5.45;;;21.00;73.20;;;;;;4970543;28;20105;-77
2022/01/03 05:30:24;;;;;;;11.85;4.00;;;21.10;73.00;;;;;;4971969;28;20030;-78
2022/01/03 05:32:51;;;;;;;11.07;3.45;;;21.20;72.80;;;;;;4964013;28;20045;-76
2022/01/03 05:35:17;;;;;;;10.60;3.15;;;21.20;72.60;;;;;;4971113;28;20023;-77
2022/01/03 05:37:44;;;;;;;11.57;3.00;;;21.30;72.60;;;;;;4968743;28;20053;-78
2022/01/03 05:40:11;;;;;;;12.07;3.33;;;21.30;72.30;;;;;;4971056;28;20468;-77
2022/01/03 05:42:37;;;;;;;8.40;2.53;;;21.40;72.20;;;;;;4968812;28;20475;-76
2022/01/03 05:45:04;;;;;;;9.82;3.42;;;21.50;72.10;;;;;;4972238;28;20145;-78
2022/01/03 05:47:31;;;;;;;18.25;3.35;;;21.50;71.90;;;;;;4969417;28;20034;-76
2022/01/03 05:49:58;;;;;;;15.57;4.40;;;21.50;71.70;;;;;;4970509;28;20055;-77
2022/01/03 05:52:25;;;;;;;11.55;3.03;;;21.60;71.60;;;;;;4972745;28;20041;-77
2022/01/03 05:54:52;;;;;;;16.27;4.00;;;21.60;71.40;;;;;;4969792;28;20027;-77
2022/01/03 05:57:19;;;;;;;11.57;2.95;;;21.70;71.20;;;;;;4969102;28;20033;-79
2022/01/03 05:59:46;;;;;;;20.65;4.00;;;21.70;71.00;;;;;;4970970;28;20034;-74
2022/01/03 06:02:12;;;;;;;14.02;3.58;;;21.70;70.80;;;;;;4976837;28;20110;-76
2022/01/03 06:04:53;;;;;;;15.60;3.33;;;21.70;70.70;;;;;;4972210;28;20508;-79
2022/01/03 06:07:20;;;;;;;10.10;4.13;;;21.80;70.60;;;;;;4956993;28;20609;-74
2022/01/03 06:09:48;;;;;;;14.63;3.67;;;21.80;70.40;;;;;;4968048;28;20553;-74
2022/01/03 06:12:17;;;;;;;21.75;3.53;;;21.90;70.50;;;;;;4969910;28;20030;-73
2022/01/03 06:14:47;;;;;;;13.77;3.10;;;21.90;70.60;;;;;;4969800;28;20030;-77
2022/01/03 06:17:14;;;;;;;30.38;5.82;;;22.00;70.60;;;;;;4967950;28;20101;-74
2022/01/03 06:19:41;;;;;;;42.35;7.55;;;22.00;70.40;;;;;;4968616;28;20035;-74
2022/01/03 06:22:09;;;;;;;25.42;5.97;;;22.00;70.20;;;;;;4970969;28;20052;-75
2022/01/03 06:24:37;;;;;;;26.45;6.55;;;22.10;70.10;;;;;;4970283;28;20062;-74
2022/01/03 06:27:04;;;;;;;18.67;3.95;;;22.10;70.00;;;;;;4965987;28;20046;-74
2022/01/03 06:29:31;;;;;;;21.85;5.18;;;22.20;69.80;;;;;;4965865;28;20023;-73
2022/01/03 06:31:59;;;;;;;11.30;3.50;;;22.20;69.50;;;;;;4964619;28;20030;-74
2022/01/03 06:34:26;;;;;;;33.00;4.45;;;22.20;69.30;;;;;;4967793;28;20021;-75
2022/01/03 06:36:52;;;;;;;23.95;4.28;;;22.30;69.20;;;;;;4966725;28;20113;-73
2022/01/03 06:39:19;;;;;;;42.38;5.97;;;22.30;69.10;;;;;;4966356;28;20038;-73
2022/01/03 06:41:45;;;;;;;24.85;3.95;;;22.30;68.90;;;;;;4967966;28;20088;-74
2022/01/03 06:44:12;;;;;;;23.80;5.32;;;22.40;68.90;;;;;;4966594;28;20023;-74
2022/01/03 06:46:48;;;;;;;14.27;3.47;;;22.40;68.70;;;;;;4970707;28;20045;-75
2022/01/03 06:49:16;;;;;;;30.35;4.63;;;22.50;68.60;;;;;;4971466;28;20026;-72
2022/01/03 06:51:42;;;;;;;43.85;6.68;;;22.50;68.50;;;;;;4958570;28;20074;-73
2022/01/03 06:54:13;;;;;;;24.25;3.85;;;22.50;68.20;;;;;;4970190;28;20068;-74
2022/01/03 06:56:41;;;;;;;18.30;4.45;;;22.60;67.90;;;;;;4972130;28;20019;-71
2022/01/03 06:59:08;;;;;;;29.52;7.00;;;22.60;67.60;;;;;;4969314;28;20034;-75
2022/01/03 07:01:36;;;;;;;18.58;4.50;;;22.60;67.50;;;;;;4966942;28;20026;-76
2022/01/03 07:04:02;;;;;;;25.83;5.05;;;22.60;67.50;;;;;;4967677;28;20035;-75
2022/01/03 07:06:30;;;;;;;17.10;4.15;;;22.70;67.60;;;;;;4967712;28;20042;-75
2022/01/03 07:08:56;;;;;;;19.75;4.28;;;22.70;67.40;;;;;;4964701;28;20078;-75
2022/01/03 07:11:23;;;;;;;20.65;4.30;;;22.70;67.30;;;;;;4950743;28;20031;-73
2022/01/03 07:13:54;;;;;;;34.97;5.68;;;22.80;67.20;;;;;;4967877;28;20027;-75
2022/01/03 07:19:07;;;;;;;21.55;5.00;;;22.80;66.80;;;;;;4966585;28;20078;-76
2022/01/03 07:21:34;;;;;;;35.35;7.10;;;22.90;66.50;;;;;;4953065;28;20109;-76
2022/01/03 07:24:01;;;;;;;54.50;7.65;;;22.90;66.10;;;;;;4972609;28;20030;-76
2022/01/03 07:26:28;;;;;;;43.70;6.40;;;22.90;65.80;;;;;;4964518;28;20402;-76
2022/01/03 07:28:55;;;;;;;27.58;4.93;;;22.90;65.50;;;;;;4971695;28;20028;-78
2022/01/03 07:31:22;;;;;;;15.05;4.68;;;22.90;65.40;;;;;;4964778;28;20019;-75
2022/01/03 07:33:48;;;;;;;13.95;3.20;;;23.00;65.10;;;;;;4969083;28;20061;-77
2022/01/03 07:36:15;;;;;;;15.55;4.05;;;23.00;65.10;;;;;;4970851;28;20057;-76
2022/01/03 07:38:46;;;;;;;18.63;3.05;;;23.00;65.00;;;;;;4968745;28;20031;-76
2022/01/03 07:41:14;;;;;;;13.38;2.90;;;23.00;65.20;;;;;;4970954;28;20469;-77
2022/01/03 07:43:41;;;;;;;53.55;5.53;;;23.10;65.30;;;;;;4965417;28;20027;-77
2022/01/03 07:46:07;;;;;;;34.03;4.53;;;23.10;65.20;;;;;;4967564;28;20067;-77
2022/01/03 07:48:35;;;;;;;22.27;4.10;;;23.20;65.40;;;;;;4967808;28;20023;-77
2022/01/03 07:51:02;;;;;;;24.10;6.88;;;23.20;65.20;;;;;;4970900;28;20663;-77
2022/01/03 07:53:29;;;;;;;13.85;3.88;;;23.30;65.10;;;;;;4969435;28;20054;-77
2022/01/03 07:55:57;;;;;;;17.13;3.60;;;23.30;64.80;;;;;;4970764;28;20033;-77
2022/01/03 07:58:23;;;;;;;9.32;2.90;;;23.30;64.60;;;;;;4967281;28;20033;-77
2022/01/03 08:00:49;;;;;;;14.00;3.78;;;23.40;64.40;;;;;;4968802;28;20023;-77
2022/01/03 08:03:16;;;;;;;11.10;3.10;;;23.40;64.20;;;;;;4968812;28;20038;-76
2022/01/03 08:05:43;;;;;;;12.60;2.75;;;23.40;64.40;;;;;;4968755;28;20039;-75
2022/01/03 08:08:09;;;;;;;28.92;8.10;;;23.50;64.40;;;;;;4972421;28;20023;-75
2022/01/03 08:10:40;;;;;;;22.95;5.93;;;23.50;64.20;;;;;;4965022;28;20073;-75
2022/01/03 08:13:06;;;;;;;21.38;5.68;;;23.50;64.00;;;;;;4967890;28;20183;-75
2022/01/03 08:15:34;;;;;;;13.00;3.67;;;23.60;64.00;;;;;;4970391;28;20121;-75
2022/01/03 08:18:00;;;;;;;13.02;4.07;;;23.60;63.70;;;;;;4967211;28;20395;-74
2022/01/03 08:20:27;;;;;;;10.57;3.17;;;23.60;63.60;;;;;;4972138;28;20128;-75
2022/01/03 08:22:53;;;;;;;15.70;4.50;;;23.70;63.40;;;;;;4968473;28;20539;-75
2022/01/03 08:25:21;;;;;;;23.27;4.25;;;23.70;63.50;;;;;;4971713;28;20039;-76
2022/01/03 08:27:48;;;;;;;17.35;3.75;;;23.70;63.40;;;;;;4968184;28;20062;-77
2022/01/03 08:30:15;;;;;;;16.08;4.72;;;23.80;63.20;;;;;;4968961;28;20045;-78
2022/01/03 08:32:42;;;;;;;16.80;4.55;;;23.80;62.80;;;;;;4970720;28;20034;-76
2022/01/03 08:35:09;;;;;;;21.83;4.43;;;23.90;62.80;;;;;;4969367;28;20026;-75
2022/01/03 08:37:36;;;;;;;13.52;3.33;;;23.90;63.00;;;;;;4973810;28;20023;-75
2022/01/03 08:40:06;;;;;;;22.70;4.68;;;24.00;62.80;;;;;;4974660;28;20023;-76
2022/01/03 08:42:35;;;;;;;15.80;3.42;;;24.00;62.90;;;;;;4972330;28;20114;-76
2022/01/03 08:45:04;;;;;;;11.88;2.85;;;24.10;62.40;;;;;;4974324;28;20023;-75
2022/01/03 08:47:31;;;;;;;7.05;3.15;;;24.10;61.70;;;;;;4971273;28;20676;-75
2022/01/03 08:49:59;;;;;;;14.40;2.75;;;24.10;61.50;;;;;;4976034;28;20107;-76
2022/01/03 08:52:26;;;;;;;10.40;2.45;;;24.10;61.50;;;;;;4969132;28;20623;-76
2022/01/03 08:54:52;;;;;;;14.30;3.42;;;24.20;61.40;;;;;;4958835;28;20039;-76
2022/01/03 08:57:21;;;;;;;39.13;12.95;;;24.20;61.00;;;;;;4971014;28;20019;-75
2022/01/03 08:59:48;;;;;;;29.25;8.02;;;24.20;61.00;;;;;;4974913;28;20030;-77
2022/01/03 09:02:20;;;;;;;19.42;5.40;;;24.20;61.60;;;;;;4971613;28;20381;-73
2022/01/03 09:04:46;;;;;;;31.48;6.32;;;24.30;61.60;;;;;;4954645;28;20031;-75
2022/01/03 09:07:13;;;;;;;26.52;5.07;;;24.30;61.10;;;;;;4970157;28;20517;-74
2022/01/03 09:09:40;;;;;;;31.75;6.22;;;24.30;61.20;;;;;;4967725;28;20023;-77
2022/01/03 09:12:08;;;;;;;30.52;4.00;;;24.30;61.00;;;;;;4972052;28;20031;-75
2022/01/03 09:14:35;;;;;;;37.63;8.27;;;24.30;60.50;;;;;;4970956;28;20034;-73
2022/01/03 09:17:02;;;;;;;39.67;6.95;;;24.30;60.30;;;;;;4972034;28;20052;-72
2022/01/03 09:19:29;;;;;;;29.90;5.43;;;24.30;60.50;;;;;;4969596;28;20027;-72
2022/01/03 09:22:09;;;;;;;15.60;3.25;;;24.30;60.40;;;;;;4971217;28;20040;-75
2022/01/03 09:24:52;;;;;;;29.05;4.47;;;24.30;60.00;;;;;;4973237;28;20041;-74
2022/01/03 09:30:06;;;;;;;45.90;5.20;;;24.30;59.80;;;;;;4970651;28;20073;-77
2022/01/03 09:32:33;;;;;;;19.77;3.45;;;24.30;59.70;;;;;;4971364;28;20058;-79
2022/01/03 09:35:00;;;;;;;15.38;2.53;;;24.30;60.00;;;;;;4969423;28;20034;-76
2022/01/03 09:37:27;;;;;;;36.72;3.78;;;24.30;60.10;;;;;;4975689;28;20034;-78
2022/01/03 09:39:54;;;;;;;15.90;4.25;;;24.30;60.20;;;;;;4971247;28;20026;-78
2022/01/03 09:42:23;;;;;;;17.05;2.70;;;24.30;60.30;;;;;;4971372;28;20041;-77
2022/01/03 09:44:53;;;;;;;13.52;4.22;;;24.40;60.20;;;;;;4972073;28;20023;-78
2022/01/03 09:47:21;;;;;;;10.68;2.28;;;24.50;60.00;;;;;;4970840;28;20493;-79
2022/01/03 09:49:49;;;;;;;14.82;2.78;;;24.60;59.70;;;;;;4974091;28;20065;-78
2022/01/03 09:52:19;;;;;;;7.82;2.25;;;24.60;59.50;;;;;;4972617;28;20035;-78
2022/01/03 09:54:46;;;;;;;7.35;2.60;;;24.60;59.30;;;;;;4970834;28;20023;-80
2022/01/03 09:57:14;;;;;;;11.57;3.20;;;24.80;59.00;;;;;;4969615;28;20061;-78
2022/01/03 09:59:43;;;;;;;8.30;2.85;;;24.80;58.90;;;;;;4974415;28;20018;-76
2022/01/03 10:02:12;;;;;;;53.00;6.82;;;24.90;58.60;;;;;;4977287;28;20593;-77
2022/01/03 10:04:38;;;;;;;27.65;4.82;;;25.00;58.90;;;;;;4969721;28;20480;-77
2022/01/03 10:07:11;;;;;;;33.70;5.47;;;25.00;58.20;;;;;;4973992;28;20122;-76
2022/01/03 10:09:39;;;;;;;22.25;4.85;;;25.10;58.00;;;;;;4967616;28;20030;-76
2022/01/03 10:12:09;;;;;;;22.33;4.22;;;25.20;57.70;;;;;;4976532;28;20089;-76
2022/01/03 10:14:35;;;;;;;14.77;4.38;;;25.20;57.20;;;;;;4965001;28;20367;-76
2022/01/03 10:17:02;;;;;;;10.40;2.80;;;25.20;57.20;;;;;;4973158;28;20493;-77
2022/01/03 10:19:30;;;;;;;15.50;3.35;;;25.20;56.60;;;;;;4964498;28;20489;-77
2022/01/03 10:21:56;;;;;;;12.23;4.20;;;25.30;56.40;;;;;;4968276;28;20047;-76
2022/01/03 10:24:36;;;;;;;14.88;6.25;;;25.30;56.20;;;;;;4972874;28;20019;-78
2022/01/03 10:27:03;;;;;;;18.92;7.22;;;25.30;56.00;;;;;;4969548;28;20045;-76
2022/01/03 10:29:31;;;;;;;14.57;6.30;;;25.40;56.30;;;;;;4971971;28;20031;-77
2022/01/03 10:32:00;;;;;;;23.60;6.43;;;25.40;56.20;;;;;;4945482;28;20030;-78
2022/01/03 10:34:27;;;;;;;16.08;5.28;;;25.40;55.90;;;;;;4973065;28;20381;-78
2022/01/03 10:36:56;;;;;;;11.73;5.43;;;25.40;55.60;;;;;;4964763;28;20031;-78
2022/01/03 10:39:27;;;;;;;15.98;4.43;;;25.50;55.60;;;;;;4973171;28;20022;-77
2022/01/03 10:42:12;;;;;;;5.50;2.83;;;25.40;55.50;;;;;;4973028;28;20022;-77
2022/01/03 10:44:41;;;;;;;10.60;3.63;;;25.50;55.50;;;;;;4970531;28;20034;-77
2022/01/03 10:47:10;;;;;;;8.25;3.17;;;25.50;55.60;;;;;;4971310;28;20404;-79
2022/01/03 10:49:39;;;;;;;6.32;3.10;;;25.50;55.60;;;;;;4971221;28;20035;-79
2022/01/03 10:52:15;;;;;;;9.80;1.90;;;25.50;55.60;;;;;;4970991;28;20023;-78
2022/01/03 10:54:43;;;;;;;6.32;2.20;;;25.40;55.40;;;;;;4966204;28;20059;-78
2022/01/03 10:57:10;;;;;;;10.48;2.85;;;25.40;55.60;;;;;;4970650;28;20085;-78
2022/01/03 10:59:38;;;;;;;38.38;4.70;;;25.50;55.80;;;;;;4969452;28;20074;-76
2022/01/03 11:02:13;;;;;;;16.02;2.92;;;25.50;55.90;;;;;;4970456;28;20117;-77
2022/01/03 11:10:45;;;;;;;12.55;2.47;;;25.60;56.00;;;;;;4971641;28;20035;-77
2022/01/03 11:13:23;;;;;;;33.25;5.07;;;25.70;55.80;;;;;;4972121;28;20394;-78
2022/01/03 11:15:54;;;;;;;18.48;3.70;;;25.80;55.60;;;;;;4967140;28;20105;-77
2022/01/03 11:18:27;;;;;;;14.70;2.65;;;25.80;55.60;;;;;;4967211;28;20089;-77
2022/01/03 11:21:15;;;;;;;21.33;2.90;;;25.90;55.50;;;;;;4971654;28;20026;-79
2022/01/03 11:23:44;;;;;;;11.20;2.97;;;25.90;55.40;;;;;;4967564;28;20035;-76
2022/01/03 11:26:12;;;;;;;8.15;2.60;;;26.00;55.20;;;;;;4972425;28;20575;-77
2022/01/03 11:28:40;;;;;;;6.95;2.53;;;26.00;54.80;;;;;;4968787;28;20027;-76
2022/01/03 11:31:08;;;;;;;8.95;2.30;;;26.00;54.80;;;;;;4971732;28;20023;-76
2022/01/03 11:33:36;;;;;;;9.13;2.47;;;26.00;54.90;;;;;;4971765;28;20023;-76
2022/01/03 11:36:03;;;;;;;5.00;1.75;;;26.00;54.60;;;;;;4967465;28;20080;-76
2022/01/03 11:38:31;;;;;;;7.13;2.40;;;26.10;54.40;;;;;;4965811;28;20023;-76
2022/01/03 11:41:04;;;;;;;6.38;1.73;;;26.20;54.40;;;;;;4970546;28;20034;-76
2022/01/03 11:43:32;;;;;;;6.93;1.85;;;26.20;54.20;;;;;;4973528;28;20039;-77
2022/01/03 11:45:59;;;;;;;9.23;2.38;;;26.20;53.90;;;;;;4969983;28;20173;-77
2022/01/03 11:48:26;;;;;;;8.05;2.10;;;26.20;53.40;;;;;;4970723;28;20552;-75
2022/01/03 11:50:58;;;;;;;18.75;2.75;;;26.30;52.90;;;;;;4976185;28;20386;-78
2022/01/03 11:53:26;;;;;;;8.25;3.35;;;26.30;52.60;;;;;;4934886;28;20035;-77
2022/01/03 11:55:57;;;;;;;9.18;1.85;;;26.30;52.20;;;;;;4972328;28;20038;-79
2022/01/03 11:59:05;;;;;;;7.95;2.05;;;26.30;52.00;;;;;;4967235;28;20113;-74
2022/01/03 12:04:40;;;;;;;6.80;1.50;;;26.40;51.70;;;;;;4968457;28;20089;-79
2022/01/03 12:07:12;;;;;;;9.10;1.80;;;26.40;51.60;;;;;;4973430;28;20085;-78
2022/01/03 12:09:50;;;;;;;12.20;2.13;;;26.50;51.50;;;;;;4968433;28;20030;-75
2022/01/03 12:12:35;;;;;;;14.23;3.40;;;26.50;51.20;;;;;;4973812;28;20035;-78
2022/01/03 12:15:04;;;;;;;14.52;2.67;;;26.50;51.20;;;;;;4957681;28;20058;-77
2022/01/03 12:17:48;;;;;;;7.18;3.15;;;26.50;51.40;;;;;;4966247;28;20043;-78
2022/01/03 12:20:16;;;;;;;11.07;2.70;;;26.40;51.20;;;;;;4974996;28;20033;-79
2022/01/03 12:22:51;;;;;;;8.85;2.55;;;26.40;51.10;;;;;;4969290;28;20055;-79
2022/01/03 12:25:38;;;;;;;7.60;3.15;;;26.40;51.20;;;;;;4973165;28;20050;-76
2022/01/03 12:28:10;;;;;;;6.63;2.28;;;26.40;51.20;;;;;;4973725;28;20034;-77
2022/01/03 12:30:53;;;;;;;7.53;1.77;;;26.40;51.20;;;;;;4959246;28;20035;-79
2022/01/03 12:33:22;;;;;;;13.73;2.60;;;26.40;51.20;;;;;;4974561;28;20027;-78
2022/01/03 12:35:50;;;;;;;10.70;2.03;;;26.40;51.30;;;;;;4969558;28;20077;-78
2022/01/03 12:38:21;;;;;;;9.00;2.20;;;26.40;51.50;;;;;;4972348;28;20029;-78
2022/01/03 12:40:50;;;;;;;6.40;2.30;;;26.50;51.40;;;;;;4967056;28;20027;-77
2022/01/03 12:43:33;;;;;;;9.10;3.75;;;26.50;51.30;;;;;;4975209;28;20023;-80
2022/01/03 12:46:01;;;;;;;9.73;3.03;;;26.60;51.10;;;;;;4965514;28;20512;-72
2022/01/03 12:48:33;;;;;;;8.52;2.53;;;26.60;51.10;;;;;;4956215;28;20081;-72
2022/01/03 12:51:03;;;;;;;12.30;2.97;;;26.60;51.30;;;;;;4971985;28;20158;-73
2022/01/03 12:53:32;;;;;;;13.40;2.70;;;26.70;51.60;;;;;;4971561;28;20041;-75
2022/01/03 12:56:04;;;;;;;9.23;3.17;;;26.70;51.30;;;;;;4969129;28;20033;-78
2022/01/03 12:58:32;;;;;;;10.85;3.67;;;26.70;50.80;;;;;;4968434;28;20560;-79
2022/01/03 13:01:08;;;;;;;42.78;9.00;;;26.80;50.70;;;;;;4970255;28;20093;-77
2022/01/03 13:03:44;;;;;;;23.83;10.38;;;26.80;50.80;;;;;;4967353;28;20031;-77
2022/01/03 13:06:12;;;;;;;18.45;4.90;;;26.70;50.70;;;;;;4973352;28;20042;-79